sensor_id;sensor_type;location;lat;lon;timestamp;P1;durP1;ratioP1;P2;durP2;ratioP2
75820;SDS011;64454;51.984;9.838;2023-04-24T00:01:02;1.60;;;1.20;;
75820;SDS011;64454;51.984;9.838;2023-04-24T00:03:32;1.60;;;1.00;;
75820;SDS011;64454;51.984;9.838;2023-04-24T00:05:59;2.00;;;1.20;;
75820;SDS011;64454;51.984;9.838;2023-04-24T00:08:27;1.95;;;1.30;;
75820;SDS011;64454;51.984;9.838;2023-04-24T00:10:54;1.90;;;1.17;;
75820;SDS011;64454;51.984;9.838;2023-04-24T00:13:22;1.60;;;1.00;;
75820;SDS011;64454;51.984;9.838;2023-04-24T00:15:49;2.47;;;1.30;;
75820;SDS011;64454;51.984;9.838;2023-04-24T00:18:16;2.28;;;1.05;;
75820;SDS011;64454;51.984;9.838;2023-04-24T00:20:42;1.20;;;1.00;;
75820;SDS011;64454;51.984;9.838;2023-04-24T00:23:09;1.40;;;1.05;;
75820;SDS011;64454;51.984;9.838;2023-04-24T00:25:36;4.20;;;1.40;;
75820;SDS011;64454;51.984;9.838;2023-04-24T00:28:03;1.60;;;1.08;;
75820;SDS011;64454;51.984;9.838;2023-04-24T00:30:32;2.08;;;1.30;;
75820;SDS011;64454;51.984;9.838;2023-04-24T00:32:58;2.45;;;1.20;;
75820;SDS011;64454;51.984;9.838;2023-04-24T00:35:25;1.88;;;1.20;;
75820;SDS011;64454;51.984;9.838;2023-04-24T00:37:52;4.93;;;1.30;;
75820;SDS011;64454;51.984;9.838;2023-04-24T00:40:19;2.30;;;1.23;;
75820;SDS011;64454;51.984;9.838;2023-04-24T00:42:46;1.20;;;1.10;;
75820;SDS011;64454;51.984;9.838;2023-04-24T00:45:13;2.22;;;1.25;;
75820;SDS011;64454;51.984;9.838;2023-04-24T00:47:42;1.88;;;1.30;;
75820;SDS011;64454;51.984;9.838;2023-04-24T00:50:08;3.30;;;1.40;;
75820;SDS011;64454;51.984;9.838;2023-04-24T00:52:36;1.65;;;1.13;;
75820;SDS011;64454;51.984;9.838;2023-04-24T00:55:05;1.20;;;1.10;;
75820;SDS011;64454;51.984;9.838;2023-04-24T00:57:33;1.90;;;1.20;;
75820;SDS011;64454;51.984;9.838;2023-04-24T01:00:00;1.57;;;1.23;;
75820;SDS011;64454;51.984;9.838;2023-04-24T01:02:28;3.20;;;1.40;;
75820;SDS011;64454;51.984;9.838;2023-04-24T01:04:59;3.00;;;1.60;;
75820;SDS011;64454;51.984;9.838;2023-04-24T01:07:26;1.40;;;1.10;;
75820;SDS011;64454;51.984;9.838;2023-04-24T01:09:54;2.10;;;1.40;;
75820;SDS011;64454;51.984;9.838;2023-04-24T01:12:20;2.50;;;1.30;;
75820;SDS011;64454;51.984;9.838;2023-04-24T01:14:47;2.92;;;1.40;;
75820;SDS011;64454;51.984;9.838;2023-04-24T01:17:15;4.22;;;1.48;;
75820;SDS011;64454;51.984;9.838;2023-04-24T01:19:42;1.90;;;1.30;;
75820;SDS011;64454;51.984;9.838;2023-04-24T01:22:11;3.45;;;1.48;;
75820;SDS011;64454;51.984;9.838;2023-04-24T01:24:40;2.85;;;1.60;;
75820;SDS011;64454;51.984;9.838;2023-04-24T01:27:07;2.08;;;1.08;;
75820;SDS011;64454;51.984;9.838;2023-04-24T01:29:35;1.42;;;1.20;;
75820;SDS011;64454;51.984;9.838;2023-04-24T01:32:03;1.50;;;1.25;;
75820;SDS011;64454;51.984;9.838;2023-04-24T01:34:31;1.40;;;1.20;;
75820;SDS011;64454;51.984;9.838;2023-04-24T01:36:59;3.42;;;1.20;;
75820;SDS011;64454;51.984;9.838;2023-04-24T01:39:27;1.65;;;1.10;;
75820;SDS011;64454;51.984;9.838;2023-04-24T01:41:55;2.28;;;1.10;;
75820;SDS011;64454;51.984;9.838;2023-04-24T01:44:22;2.38;;;1.20;;
75820;SDS011;64454;51.984;9.838;2023-04-24T01:46:49;3.00;;;1.10;;
75820;SDS011;64454;51.984;9.838;2023-04-24T01:49:16;2.90;;;1.10;;
75820;SDS011;64454;51.984;9.838;2023-04-24T01:51:44;1.80;;;1.10;;
75820;SDS011;64454;51.984;9.838;2023-04-24T01:54:11;1.60;;;1.17;;
75820;SDS011;64454;51.984;9.838;2023-04-24T01:56:41;2.22;;;1.20;;
75820;SDS011;64454;51.984;9.838;2023-04-24T01:59:09;2.90;;;1.20;;
75820;SDS011;64454;51.984;9.838;2023-04-24T02:01:38;1.42;;;0.90;;
75820;SDS011;64454;51.984;9.838;2023-04-24T02:04:06;1.40;;;0.90;;
75820;SDS011;64454;51.984;9.838;2023-04-24T02:06:33;1.20;;;1.02;;
75820;SDS011;64454;51.984;9.838;2023-04-24T02:09:00;1.30;;;0.80;;
75820;SDS011;64454;51.984;9.838;2023-04-24T02:11:27;1.10;;;0.80;;
75820;SDS011;64454;51.984;9.838;2023-04-24T02:13:56;1.30;;;1.02;;
75820;SDS011;64454;51.984;9.838;2023-04-24T02:16:23;1.08;;;0.90;;
75820;SDS011;64454;51.984;9.838;2023-04-24T02:18:50;1.27;;;0.85;;
75820;SDS011;64454;51.984;9.838;2023-04-24T02:21:17;1.30;;;0.80;;
75820;SDS011;64454;51.984;9.838;2023-04-24T02:23:43;2.40;;;0.80;;
75820;SDS011;64454;51.984;9.838;2023-04-24T02:26:10;3.10;;;0.80;;
75820;SDS011;64454;51.984;9.838;2023-04-24T02:28:37;1.20;;;0.90;;
75820;SDS011;64454;51.984;9.838;2023-04-24T02:31:05;1.50;;;1.00;;
75820;SDS011;64454;51.984;9.838;2023-04-24T02:33:33;1.08;;;0.70;;
75820;SDS011;64454;51.984;9.838;2023-04-24T02:36:00;2.00;;;1.10;;
75820;SDS011;64454;51.984;9.838;2023-04-24T02:38:27;1.20;;;0.90;;
75820;SDS011;64454;51.984;9.838;2023-04-24T02:40:55;1.27;;;0.80;;
75820;SDS011;64454;51.984;9.838;2023-04-24T02:43:21;0.95;;;0.60;;
75820;SDS011;64454;51.984;9.838;2023-04-24T02:45:48;1.33;;;0.60;;
75820;SDS011;64454;51.984;9.838;2023-04-24T02:48:16;1.00;;;0.80;;
75820;SDS011;64454;51.984;9.838;2023-04-24T02:50:45;1.30;;;0.70;;
75820;SDS011;64454;51.984;9.838;2023-04-24T02:53:12;1.13;;;0.50;;
75820;SDS011;64454;51.984;9.838;2023-04-24T02:55:39;1.70;;;0.60;;
75820;SDS011;64454;51.984;9.838;2023-04-24T02:58:06;1.23;;;0.70;;
75820;SDS011;64454;51.984;9.838;2023-04-24T03:00:33;1.90;;;0.90;;
75820;SDS011;64454;51.984;9.838;2023-04-24T03:03:00;1.02;;;0.70;;
75820;SDS011;64454;51.984;9.838;2023-04-24T03:05:29;1.20;;;0.80;;
75820;SDS011;64454;51.984;9.838;2023-04-24T03:07:56;1.00;;;0.60;;
75820;SDS011;64454;51.984;9.838;2023-04-24T03:10:23;1.30;;;0.70;;
75820;SDS011;64454;51.984;9.838;2023-04-24T03:12:50;2.20;;;0.70;;
75820;SDS011;64454;51.984;9.838;2023-04-24T03:15:17;1.00;;;0.70;;
75820;SDS011;64454;51.984;9.838;2023-04-24T03:17:44;1.40;;;0.60;;
75820;SDS011;64454;51.984;9.838;2023-04-24T03:20:11;1.00;;;0.70;;
75820;SDS011;64454;51.984;9.838;2023-04-24T03:22:39;0.90;;;0.60;;
75820;SDS011;64454;51.984;9.838;2023-04-24T03:25:06;1.80;;;0.70;;
75820;SDS011;64454;51.984;9.838;2023-04-24T03:27:34;1.30;;;0.70;;
75820;SDS011;64454;51.984;9.838;2023-04-24T03:30:02;1.40;;;0.80;;
75820;SDS011;64454;51.984;9.838;2023-04-24T03:32:29;1.90;;;1.10;;
75820;SDS011;64454;51.984;9.838;2023-04-24T03:34:57;0.90;;;0.60;;
75820;SDS011;64454;51.984;9.838;2023-04-24T03:37:24;2.30;;;0.70;;
75820;SDS011;64454;51.984;9.838;2023-04-24T03:39:52;3.33;;;0.77;;
75820;SDS011;64454;51.984;9.838;2023-04-24T03:42:19;1.60;;;0.90;;
75820;SDS011;64454;51.984;9.838;2023-04-24T03:44:46;1.58;;;0.75;;
75820;SDS011;64454;51.984;9.838;2023-04-24T03:47:13;2.80;;;1.00;;
75820;SDS011;64454;51.984;9.838;2023-04-24T03:49:40;1.20;;;0.67;;
75820;SDS011;64454;51.984;9.838;2023-04-24T03:52:06;1.20;;;0.80;;
75820;SDS011;64454;51.984;9.838;2023-04-24T03:54:33;1.15;;;0.80;;
75820;SDS011;64454;51.984;9.838;2023-04-24T03:57:01;1.08;;;0.60;;
75820;SDS011;64454;51.984;9.838;2023-04-24T03:59:29;0.83;;;0.70;;
75820;SDS011;64454;51.984;9.838;2023-04-24T04:01:56;0.90;;;0.80;;
75820;SDS011;64454;51.984;9.838;2023-04-24T04:04:23;2.33;;;0.80;;
75820;SDS011;64454;51.984;9.838;2023-04-24T04:06:50;2.00;;;1.00;;
75820;SDS011;64454;51.984;9.838;2023-04-24T04:09:17;1.92;;;0.80;;
75820;SDS011;64454;51.984;9.838;2023-04-24T04:11:45;1.30;;;0.90;;
75820;SDS011;64454;51.984;9.838;2023-04-24T04:14:14;1.90;;;0.90;;
75820;SDS011;64454;51.984;9.838;2023-04-24T04:16:42;1.23;;;0.80;;
75820;SDS011;64454;51.984;9.838;2023-04-24T04:19:09;1.20;;;0.63;;
75820;SDS011;64454;51.984;9.838;2023-04-24T04:21:36;1.60;;;0.70;;
75820;SDS011;64454;51.984;9.838;2023-04-24T04:24:03;1.00;;;0.70;;
75820;SDS011;64454;51.984;9.838;2023-04-24T04:26:32;2.40;;;0.95;;
75820;SDS011;64454;51.984;9.838;2023-04-24T04:29:00;1.38;;;0.85;;
75820;SDS011;64454;51.984;9.838;2023-04-24T04:31:29;3.70;;;1.00;;
75820;SDS011;64454;51.984;9.838;2023-04-24T04:33:56;1.40;;;0.97;;
75820;SDS011;64454;51.984;9.838;2023-04-24T04:36:23;1.55;;;0.80;;
75820;SDS011;64454;51.984;9.838;2023-04-24T04:38:50;1.20;;;0.88;;
75820;SDS011;64454;51.984;9.838;2023-04-24T04:41:19;1.10;;;0.70;;
75820;SDS011;64454;51.984;9.838;2023-04-24T04:43:46;1.08;;;0.80;;
75820;SDS011;64454;51.984;9.838;2023-04-24T04:46:13;1.40;;;0.90;;
75820;SDS011;64454;51.984;9.838;2023-04-24T04:48:41;1.20;;;0.80;;
75820;SDS011;64454;51.984;9.838;2023-04-24T04:51:08;1.83;;;0.93;;
75820;SDS011;64454;51.984;9.838;2023-04-24T04:53:35;2.40;;;0.80;;
75820;SDS011;64454;51.984;9.838;2023-04-24T04:56:02;0.80;;;0.55;;
75820;SDS011;64454;51.984;9.838;2023-04-24T04:58:29;2.10;;;0.90;;
75820;SDS011;64454;51.984;9.838;2023-04-24T05:00:56;1.00;;;0.70;;
75820;SDS011;64454;51.984;9.838;2023-04-24T05:03:23;1.58;;;0.85;;
75820;SDS011;64454;51.984;9.838;2023-04-24T05:05:51;1.23;;;0.73;;
75820;SDS011;64454;51.984;9.838;2023-04-24T05:08:18;1.15;;;0.60;;
75820;SDS011;64454;51.984;9.838;2023-04-24T05:10:44;2.00;;;0.80;;
75820;SDS011;64454;51.984;9.838;2023-04-24T05:13:11;1.55;;;0.80;;
75820;SDS011;64454;51.984;9.838;2023-04-24T05:15:38;2.47;;;0.75;;
75820;SDS011;64454;51.984;9.838;2023-04-24T05:18:05;1.30;;;0.80;;
75820;SDS011;64454;51.984;9.838;2023-04-24T05:20:32;1.30;;;0.80;;
75820;SDS011;64454;51.984;9.838;2023-04-24T05:23:00;1.52;;;0.90;;
75820;SDS011;64454;51.984;9.838;2023-04-24T05:25:27;1.20;;;0.80;;
75820;SDS011;64454;51.984;9.838;2023-04-24T05:27:53;1.52;;;0.80;;
75820;SDS011;64454;51.984;9.838;2023-04-24T05:30:20;1.10;;;0.70;;
75820;SDS011;64454;51.984;9.838;2023-04-24T05:32:47;1.70;;;0.88;;
75820;SDS011;64454;51.984;9.838;2023-04-24T05:35:14;2.00;;;0.70;;
75820;SDS011;64454;51.984;9.838;2023-04-24T05:37:41;1.60;;;0.85;;
75820;SDS011;64454;51.984;9.838;2023-04-24T05:40:10;1.30;;;0.60;;
75820;SDS011;64454;51.984;9.838;2023-04-24T05:42:37;1.30;;;0.60;;
75820;SDS011;64454;51.984;9.838;2023-04-24T05:45:04;1.70;;;0.70;;
75820;SDS011;64454;51.984;9.838;2023-04-24T05:47:32;1.75;;;0.60;;
75820;SDS011;64454;51.984;9.838;2023-04-24T05:49:59;1.80;;;0.60;;
75820;SDS011;64454;51.984;9.838;2023-04-24T05:52:26;0.85;;;0.63;;
75820;SDS011;64454;51.984;9.838;2023-04-24T05:54:52;0.98;;;0.70;;
75820;SDS011;64454;51.984;9.838;2023-04-24T05:57:21;0.80;;;0.50;;
75820;SDS011;64454;51.984;9.838;2023-04-24T05:59:48;1.10;;;0.60;;
75820;SDS011;64454;51.984;9.838;2023-04-24T06:02:14;1.20;;;0.80;;
75820;SDS011;64454;51.984;9.838;2023-04-24T06:04:42;2.15;;;0.65;;
75820;SDS011;64454;51.984;9.838;2023-04-24T06:07:10;1.27;;;0.82;;
75820;SDS011;64454;51.984;9.838;2023-04-24T06:09:36;1.60;;;0.85;;
75820;SDS011;64454;51.984;9.838;2023-04-24T06:12:03;2.30;;;0.97;;
75820;SDS011;64454;51.984;9.838;2023-04-24T06:14:34;1.20;;;0.90;;
75820;SDS011;64454;51.984;9.838;2023-04-24T06:17:01;2.40;;;0.70;;
75820;SDS011;64454;51.984;9.838;2023-04-24T06:19:28;1.30;;;0.80;;
75820;SDS011;64454;51.984;9.838;2023-04-24T06:21:55;2.00;;;0.90;;
75820;SDS011;64454;51.984;9.838;2023-04-24T06:24:21;1.30;;;0.88;;
75820;SDS011;64454;51.984;9.838;2023-04-24T06:26:48;1.70;;;0.80;;
75820;SDS011;64454;51.984;9.838;2023-04-24T06:29:16;1.58;;;1.08;;
75820;SDS011;64454;51.984;9.838;2023-04-24T06:31:46;0.88;;;0.75;;
75820;SDS011;64454;51.984;9.838;2023-04-24T06:34:14;1.13;;;0.75;;
75820;SDS011;64454;51.984;9.838;2023-04-24T06:36:43;1.30;;;0.90;;
75820;SDS011;64454;51.984;9.838;2023-04-24T06:39:10;1.30;;;1.10;;
75820;SDS011;64454;51.984;9.838;2023-04-24T06:41:37;1.60;;;1.30;;
75820;SDS011;64454;51.984;9.838;2023-04-24T06:44:04;1.73;;;0.95;;
75820;SDS011;64454;51.984;9.838;2023-04-24T06:46:32;1.80;;;1.20;;
75820;SDS011;64454;51.984;9.838;2023-04-24T06:49:00;2.30;;;1.10;;
75820;SDS011;64454;51.984;9.838;2023-04-24T06:51:27;1.65;;;1.17;;
75820;SDS011;64454;51.984;9.838;2023-04-24T06:53:54;1.85;;;1.20;;
75820;SDS011;64454;51.984;9.838;2023-04-24T06:56:21;1.88;;;1.42;;
75820;SDS011;64454;51.984;9.838;2023-04-24T06:58:48;2.55;;;1.80;;
75820;SDS011;64454;51.984;9.838;2023-04-24T07:01:16;2.20;;;1.70;;
75820;SDS011;64454;51.984;9.838;2023-04-24T07:03:42;2.20;;;1.40;;
75820;SDS011;64454;51.984;9.838;2023-04-24T07:06:11;2.20;;;1.40;;
75820;SDS011;64454;51.984;9.838;2023-04-24T07:08:38;2.38;;;1.42;;
75820;SDS011;64454;51.984;9.838;2023-04-24T07:11:06;1.93;;;1.40;;
75820;SDS011;64454;51.984;9.838;2023-04-24T07:13:33;2.60;;;1.40;;
75820;SDS011;64454;51.984;9.838;2023-04-24T07:16:00;2.15;;;1.50;;
75820;SDS011;64454;51.984;9.838;2023-04-24T07:18:27;1.92;;;1.40;;
75820;SDS011;64454;51.984;9.838;2023-04-24T07:20:54;2.50;;;1.40;;
75820;SDS011;64454;51.984;9.838;2023-04-24T07:23:22;3.15;;;1.80;;
75820;SDS011;64454;51.984;9.838;2023-04-24T07:25:49;2.72;;;1.90;;
75820;SDS011;64454;51.984;9.838;2023-04-24T07:28:16;2.13;;;1.80;;
75820;SDS011;64454;51.984;9.838;2023-04-24T07:30:43;4.10;;;2.20;;
75820;SDS011;64454;51.984;9.838;2023-04-24T07:33:10;1.92;;;1.60;;
75820;SDS011;64454;51.984;9.838;2023-04-24T07:35:38;3.08;;;1.70;;
75820;SDS011;64454;51.984;9.838;2023-04-24T07:38:05;2.90;;;1.90;;
75820;SDS011;64454;51.984;9.838;2023-04-24T07:40:33;2.83;;;2.15;;
75820;SDS011;64454;51.984;9.838;2023-04-24T07:43:00;2.90;;;1.80;;
75820;SDS011;64454;51.984;9.838;2023-04-24T07:45:26;2.70;;;2.00;;
75820;SDS011;64454;51.984;9.838;2023-04-24T07:47:53;4.95;;;2.40;;
75820;SDS011;64454;51.984;9.838;2023-04-24T07:50:20;3.00;;;2.70;;
75820;SDS011;64454;51.984;9.838;2023-04-24T07:52:47;2.60;;;2.30;;
75820;SDS011;64454;51.984;9.838;2023-04-24T07:55:14;2.58;;;2.10;;
75820;SDS011;64454;51.984;9.838;2023-04-24T07:57:42;3.50;;;1.90;;
75820;SDS011;64454;51.984;9.838;2023-04-24T08:00:10;3.40;;;2.65;;
75820;SDS011;64454;51.984;9.838;2023-04-24T08:02:38;2.90;;;2.00;;
75820;SDS011;64454;51.984;9.838;2023-04-24T08:05:05;2.10;;;1.90;;
75820;SDS011;64454;51.984;9.838;2023-04-24T08:07:32;3.72;;;2.42;;
75820;SDS011;64454;51.984;9.838;2023-04-24T08:10:00;4.25;;;2.58;;
75820;SDS011;64454;51.984;9.838;2023-04-24T08:12:27;3.67;;;2.63;;
75820;SDS011;64454;51.984;9.838;2023-04-24T08:14:55;3.40;;;2.88;;
75820;SDS011;64454;51.984;9.838;2023-04-24T08:17:23;3.30;;;3.00;;
75820;SDS011;64454;51.984;9.838;2023-04-24T08:19:50;3.00;;;2.70;;
75820;SDS011;64454;51.984;9.838;2023-04-24T08:22:18;4.10;;;3.40;;
75820;SDS011;64454;51.984;9.838;2023-04-24T08:24:45;4.05;;;3.25;;
75820;SDS011;64454;51.984;9.838;2023-04-24T08:27:12;4.03;;;3.20;;
75820;SDS011;64454;51.984;9.838;2023-04-24T08:29:39;3.63;;;2.90;;
75820;SDS011;64454;51.984;9.838;2023-04-24T08:32:07;3.20;;;2.70;;
75820;SDS011;64454;51.984;9.838;2023-04-24T08:34:33;5.28;;;3.15;;
75820;SDS011;64454;51.984;9.838;2023-04-24T08:37:00;3.75;;;3.10;;
75820;SDS011;64454;51.984;9.838;2023-04-24T08:39:28;5.10;;;3.42;;
75820;SDS011;64454;51.984;9.838;2023-04-24T08:41:55;3.67;;;2.90;;
75820;SDS011;64454;51.984;9.838;2023-04-24T08:44:22;4.40;;;3.10;;
75820;SDS011;64454;51.984;9.838;2023-04-24T08:46:49;3.72;;;3.10;;
75820;SDS011;64454;51.984;9.838;2023-04-24T08:49:18;4.97;;;3.20;;
75820;SDS011;64454;51.984;9.838;2023-04-24T08:51:47;4.73;;;3.40;;
75820;SDS011;64454;51.984;9.838;2023-04-24T08:54:16;4.88;;;3.22;;
75820;SDS011;64454;51.984;9.838;2023-04-24T08:56:47;4.35;;;3.30;;
75820;SDS011;64454;51.984;9.838;2023-04-24T08:59:15;3.85;;;3.22;;
75820;SDS011;64454;51.984;9.838;2023-04-24T09:01:47;5.30;;;3.17;;
75820;SDS011;64454;51.984;9.838;2023-04-24T09:04:19;4.35;;;3.10;;
75820;SDS011;64454;51.984;9.838;2023-04-24T09:06:49;3.88;;;2.80;;
75820;SDS011;64454;51.984;9.838;2023-04-24T09:09:17;3.40;;;3.00;;
75820;SDS011;64454;51.984;9.838;2023-04-24T09:11:45;4.40;;;3.10;;
75820;SDS011;64454;51.984;9.838;2023-04-24T09:14:15;4.25;;;2.70;;
75820;SDS011;64454;51.984;9.838;2023-04-24T09:16:45;3.42;;;2.80;;
75820;SDS011;64454;51.984;9.838;2023-04-24T09:19:12;3.00;;;2.60;;
75820;SDS011;64454;51.984;9.838;2023-04-24T09:21:42;3.60;;;2.60;;
75820;SDS011;64454;51.984;9.838;2023-04-24T09:24:15;2.80;;;2.30;;
75820;SDS011;64454;51.984;9.838;2023-04-24T09:26:47;4.60;;;2.70;;
75820;SDS011;64454;51.984;9.838;2023-04-24T09:29:16;3.63;;;2.20;;
75820;SDS011;64454;51.984;9.838;2023-04-24T09:31:45;3.60;;;2.70;;
75820;SDS011;64454;51.984;9.838;2023-04-24T09:34:12;3.20;;;2.20;;
75820;SDS011;64454;51.984;9.838;2023-04-24T09:36:44;4.72;;;2.22;;
75820;SDS011;64454;51.984;9.838;2023-04-24T09:39:11;2.85;;;2.03;;
75820;SDS011;64454;51.984;9.838;2023-04-24T09:41:44;2.50;;;2.30;;
75820;SDS011;64454;51.984;9.838;2023-04-24T09:44:13;2.10;;;1.90;;
75820;SDS011;64454;51.984;9.838;2023-04-24T09:46:44;3.20;;;2.30;;
75820;SDS011;64454;51.984;9.838;2023-04-24T09:49:20;2.20;;;1.67;;
75820;SDS011;64454;51.984;9.838;2023-04-24T09:51:51;2.50;;;2.00;;
75820;SDS011;64454;51.984;9.838;2023-04-24T09:54:28;2.55;;;1.90;;
75820;SDS011;64454;51.984;9.838;2023-04-24T09:56:54;1.90;;;1.70;;
75820;SDS011;64454;51.984;9.838;2023-04-24T09:59:22;2.90;;;2.10;;
75820;SDS011;64454;51.984;9.838;2023-04-24T10:01:49;2.07;;;1.87;;
75820;SDS011;64454;51.984;9.838;2023-04-24T10:04:18;2.90;;;2.20;;
75820;SDS011;64454;51.984;9.838;2023-04-24T10:06:48;2.03;;;1.80;;
75820;SDS011;64454;51.984;9.838;2023-04-24T10:09:19;3.60;;;2.30;;
75820;SDS011;64454;51.984;9.838;2023-04-24T10:11:48;5.00;;;2.20;;
75820;SDS011;64454;51.984;9.838;2023-04-24T10:14:19;2.67;;;2.05;;
75820;SDS011;64454;51.984;9.838;2023-04-24T10:16:48;2.65;;;2.30;;
75820;SDS011;64454;51.984;9.838;2023-04-24T10:19:19;3.38;;;2.20;;
75820;SDS011;64454;51.984;9.838;2023-04-24T10:21:47;3.63;;;2.15;;
75820;SDS011;64454;51.984;9.838;2023-04-24T10:24:17;2.30;;;2.10;;
75820;SDS011;64454;51.984;9.838;2023-04-24T10:26:46;2.92;;;2.40;;
75820;SDS011;64454;51.984;9.838;2023-04-24T10:29:14;4.10;;;2.30;;
75820;SDS011;64454;51.984;9.838;2023-04-24T10:31:46;2.80;;;2.30;;
75820;SDS011;64454;51.984;9.838;2023-04-24T10:34:14;3.45;;;2.22;;
75820;SDS011;64454;51.984;9.838;2023-04-24T10:36:47;2.40;;;1.98;;
75820;SDS011;64454;51.984;9.838;2023-04-24T10:39:19;2.28;;;2.03;;
75820;SDS011;64454;51.984;9.838;2023-04-24T10:41:48;3.20;;;2.00;;
75820;SDS011;64454;51.984;9.838;2023-04-24T10:44:16;2.30;;;1.70;;
75820;SDS011;64454;51.984;9.838;2023-04-24T10:46:43;1.90;;;1.70;;
75820;SDS011;64454;51.984;9.838;2023-04-24T10:49:13;2.30;;;1.80;;
75820;SDS011;64454;51.984;9.838;2023-04-24T10:51:44;1.65;;;1.40;;
75820;SDS011;64454;51.984;9.838;2023-04-24T10:54:24;2.45;;;1.50;;
75820;SDS011;64454;51.984;9.838;2023-04-24T10:56:52;2.20;;;1.50;;
75820;SDS011;64454;51.984;9.838;2023-04-24T10:59:40;1.90;;;1.40;;
75820;SDS011;64454;51.984;9.838;2023-04-24T11:02:07;1.77;;;1.50;;
75820;SDS011;64454;51.984;9.838;2023-04-24T11:04:34;4.00;;;1.40;;
75820;SDS011;64454;51.984;9.838;2023-04-24T11:07:02;1.60;;;1.30;;
75820;SDS011;64454;51.984;9.838;2023-04-24T11:09:31;1.40;;;1.10;;
75820;SDS011;64454;51.984;9.838;2023-04-24T11:12:03;1.30;;;1.17;;
75820;SDS011;64454;51.984;9.838;2023-04-24T11:17:29;1.50;;;1.20;;
75820;SDS011;64454;51.984;9.838;2023-04-24T11:20:01;1.70;;;1.20;;
75820;SDS011;64454;51.984;9.838;2023-04-24T11:22:31;1.85;;;1.30;;
75820;SDS011;64454;51.984;9.838;2023-04-24T11:25:02;1.77;;;1.23;;
75820;SDS011;64454;51.984;9.838;2023-04-24T11:27:31;2.60;;;1.30;;
75820;SDS011;64454;51.984;9.838;2023-04-24T11:30:05;1.70;;;1.40;;
75820;SDS011;64454;51.984;9.838;2023-04-24T11:32:34;1.90;;;1.40;;
75820;SDS011;64454;51.984;9.838;2023-04-24T11:35:03;1.92;;;1.30;;
75820;SDS011;64454;51.984;9.838;2023-04-24T11:37:35;2.90;;;1.33;;
75820;SDS011;64454;51.984;9.838;2023-04-24T11:40:05;1.95;;;1.38;;
75820;SDS011;64454;51.984;9.838;2023-04-24T11:42:35;2.30;;;1.40;;
75820;SDS011;64454;51.984;9.838;2023-04-24T11:45:07;1.50;;;1.40;;
75820;SDS011;64454;51.984;9.838;2023-04-24T11:47:36;2.67;;;1.40;;
75820;SDS011;64454;51.984;9.838;2023-04-24T11:50:04;1.70;;;1.25;;
75820;SDS011;64454;51.984;9.838;2023-04-24T11:52:33;1.50;;;1.10;;
75820;SDS011;64454;51.984;9.838;2023-04-24T11:55:08;1.15;;;1.00;;
75820;SDS011;64454;51.984;9.838;2023-04-24T11:57:52;1.93;;;1.30;;
75820;SDS011;64454;51.984;9.838;2023-04-24T12:00:22;1.20;;;0.90;;
75820;SDS011;64454;51.984;9.838;2023-04-24T12:02:51;2.70;;;1.20;;
75820;SDS011;64454;51.984;9.838;2023-04-24T12:05:30;1.00;;;0.80;;
75820;SDS011;64454;51.984;9.838;2023-04-24T12:07:57;2.10;;;0.80;;
75820;SDS011;64454;51.984;9.838;2023-04-24T12:10:27;1.15;;;0.95;;
75820;SDS011;64454;51.984;9.838;2023-04-24T12:12:56;1.40;;;0.80;;
75820;SDS011;64454;51.984;9.838;2023-04-24T12:15:24;1.25;;;0.75;;
75820;SDS011;64454;51.984;9.838;2023-04-24T12:17:52;2.00;;;0.90;;
75820;SDS011;64454;51.984;9.838;2023-04-24T12:20:23;1.30;;;1.00;;
75820;SDS011;64454;51.984;9.838;2023-04-24T12:22:53;1.00;;;0.70;;
75820;SDS011;64454;51.984;9.838;2023-04-24T12:25:21;1.00;;;0.60;;
75820;SDS011;64454;51.984;9.838;2023-04-24T12:27:55;1.00;;;0.70;;
75820;SDS011;64454;51.984;9.838;2023-04-24T12:30:39;0.80;;;0.50;;
75820;SDS011;64454;51.984;9.838;2023-04-24T12:33:09;1.10;;;0.60;;
75820;SDS011;64454;51.984;9.838;2023-04-24T12:35:36;0.90;;;0.55;;
75820;SDS011;64454;51.984;9.838;2023-04-24T12:38:06;0.98;;;0.68;;
75820;SDS011;64454;51.984;9.838;2023-04-24T12:40:34;1.00;;;0.70;;
75820;SDS011;64454;51.984;9.838;2023-04-24T12:43:02;2.35;;;1.00;;
75820;SDS011;64454;51.984;9.838;2023-04-24T12:45:39;2.03;;;0.90;;
75820;SDS011;64454;51.984;9.838;2023-04-24T12:48:06;1.60;;;1.30;;
75820;SDS011;64454;51.984;9.838;2023-04-24T12:50:33;1.67;;;1.20;;
75820;SDS011;64454;51.984;9.838;2023-04-24T12:53:00;1.85;;;1.00;;
75820;SDS011;64454;51.984;9.838;2023-04-24T12:55:27;2.35;;;1.00;;
75820;SDS011;64454;51.984;9.838;2023-04-24T12:57:54;2.55;;;1.10;;
75820;SDS011;64454;51.984;9.838;2023-04-24T13:00:22;1.25;;;0.80;;
75820;SDS011;64454;51.984;9.838;2023-04-24T13:02:49;1.20;;;0.70;;
75820;SDS011;64454;51.984;9.838;2023-04-24T13:05:16;1.00;;;0.80;;
75820;SDS011;64454;51.984;9.838;2023-04-24T13:07:43;1.47;;;0.77;;
75820;SDS011;64454;51.984;9.838;2023-04-24T13:10:10;1.20;;;0.70;;
75820;SDS011;64454;51.984;9.838;2023-04-24T13:12:38;1.20;;;0.70;;
75820;SDS011;64454;51.984;9.838;2023-04-24T13:15:05;1.00;;;0.80;;
75820;SDS011;64454;51.984;9.838;2023-04-24T13:17:34;0.80;;;0.60;;
75820;SDS011;64454;51.984;9.838;2023-04-24T13:20:01;1.00;;;0.60;;
75820;SDS011;64454;51.984;9.838;2023-04-24T13:22:29;5.05;;;0.80;;
75820;SDS011;64454;51.984;9.838;2023-04-24T13:24:56;1.00;;;0.70;;
75820;SDS011;64454;51.984;9.838;2023-04-24T13:27:23;2.00;;;0.70;;
75820;SDS011;64454;51.984;9.838;2023-04-24T13:29:49;0.80;;;0.55;;
75820;SDS011;64454;51.984;9.838;2023-04-24T13:32:16;2.42;;;0.80;;
75820;SDS011;64454;51.984;9.838;2023-04-24T13:34:44;0.75;;;0.50;;
75820;SDS011;64454;51.984;9.838;2023-04-24T13:37:11;1.98;;;0.63;;
75820;SDS011;64454;51.984;9.838;2023-04-24T13:39:38;1.10;;;0.60;;
75820;SDS011;64454;51.984;9.838;2023-04-24T13:42:06;0.90;;;0.60;;
75820;SDS011;64454;51.984;9.838;2023-04-24T13:44:33;1.60;;;0.60;;
75820;SDS011;64454;51.984;9.838;2023-04-24T13:47:00;1.80;;;0.75;;
75820;SDS011;64454;51.984;9.838;2023-04-24T13:49:27;1.80;;;0.90;;
75820;SDS011;64454;51.984;9.838;2023-04-24T13:51:55;1.00;;;0.68;;
75820;SDS011;64454;51.984;9.838;2023-04-24T13:54:22;1.80;;;0.73;;
75820;SDS011;64454;51.984;9.838;2023-04-24T13:56:50;1.23;;;0.90;;
75820;SDS011;64454;51.984;9.838;2023-04-24T13:59:19;1.40;;;0.80;;
75820;SDS011;64454;51.984;9.838;2023-04-24T14:01:46;0.80;;;0.60;;
75820;SDS011;64454;51.984;9.838;2023-04-24T14:04:14;1.10;;;0.57;;
75820;SDS011;64454;51.984;9.838;2023-04-24T14:06:43;1.00;;;0.60;;
75820;SDS011;64454;51.984;9.838;2023-04-24T14:09:12;1.80;;;0.70;;
75820;SDS011;64454;51.984;9.838;2023-04-24T14:11:40;1.08;;;0.60;;
75820;SDS011;64454;51.984;9.838;2023-04-24T14:14:07;1.00;;;0.70;;
75820;SDS011;64454;51.984;9.838;2023-04-24T14:16:34;1.10;;;0.80;;
75820;SDS011;64454;51.984;9.838;2023-04-24T14:19:01;1.45;;;0.98;;
75820;SDS011;64454;51.984;9.838;2023-04-24T14:21:27;1.55;;;0.90;;
75820;SDS011;64454;51.984;9.838;2023-04-24T14:23:55;1.55;;;0.80;;
75820;SDS011;64454;51.984;9.838;2023-04-24T14:26:23;1.30;;;0.90;;
75820;SDS011;64454;51.984;9.838;2023-04-24T14:28:50;1.17;;;0.80;;
75820;SDS011;64454;51.984;9.838;2023-04-24T14:31:18;1.30;;;0.80;;
75820;SDS011;64454;51.984;9.838;2023-04-24T14:33:44;1.52;;;0.80;;
75820;SDS011;64454;51.984;9.838;2023-04-24T14:36:11;1.70;;;0.80;;
75820;SDS011;64454;51.984;9.838;2023-04-24T14:38:38;1.10;;;0.80;;
75820;SDS011;64454;51.984;9.838;2023-04-24T14:41:05;1.80;;;1.00;;
75820;SDS011;64454;51.984;9.838;2023-04-24T14:43:35;1.60;;;0.73;;
75820;SDS011;64454;51.984;9.838;2023-04-24T14:46:02;1.10;;;0.80;;
75820;SDS011;64454;51.984;9.838;2023-04-24T14:48:30;1.20;;;0.90;;
75820;SDS011;64454;51.984;9.838;2023-04-24T14:50:57;1.30;;;1.00;;
75820;SDS011;64454;51.984;9.838;2023-04-24T14:53:24;1.38;;;0.90;;
75820;SDS011;64454;51.984;9.838;2023-04-24T14:55:51;1.30;;;0.90;;